Brisas de Luquillo, Puerto Rico
Current Conditions -  °F | °C
As of 6:53 PM on Thursday 20 Nov 2014 (Local Time) from TJNR Reporting Station
Overcast Overcast  
Wind Chill: 82°   Ceiling: 4200
Heat Index: 86°   Visibility: 10mi
Dew Point: 71°   Wind: 8mph
Humidity: 69%   Direction: 100°E
Pressure: 30.01"   Gusts: NA
Location:  18.3744°N, 65.7168°W
Report Text: TJNR 202253Z AUTO 10007KT 10SM SCT032 OVC042 28/22 A3001 RMK AO2 SLP162 T02780217 $
Loading
Personal Weather Stations






























Interactive Weather Map New forecast layout! Learn more

10-Day Weather Forecast

Advertisements
Track Severe Weather on mobile